sensor_id;sensor_type;location;lat;lon;timestamp;pressure;altitude;pressure_sealevel;temperature;humidity
79077;BME280;68477;42.698;23.342;2024-03-29T00:01:22;95161.84;;;11.60;56.11
79077;BME280;68477;42.698;23.342;2024-03-29T00:03:49;95152.19;;;12.11;54.43
79077;BME280;68477;42.698;23.342;2024-03-29T00:06:14;95160.16;;;12.33;53.68
79077;BME280;68477;42.698;23.342;2024-03-29T00:08:40;95159.28;;;12.26;53.16
79077;BME280;68477;42.698;23.342;2024-03-29T00:11:06;95160.34;;;12.31;52.58
79077;BME280;68477;42.698;23.342;2024-03-29T00:13:31;95160.38;;;12.16;53.08
79077;BME280;68477;42.698;23.342;2024-03-29T00:15:57;95164.09;;;12.22;53.29
79077;BME280;68477;42.698;23.342;2024-03-29T00:18:22;95167.72;;;12.36;52.30
79077;BME280;68477;42.698;23.342;2024-03-29T00:20:49;95173.22;;;12.56;51.89
79077;BME280;68477;42.698;23.342;2024-03-29T00:23:15;95164.03;;;12.51;51.17
79077;BME280;68477;42.698;23.342;2024-03-29T00:25:40;95163.97;;;12.45;51.49
79077;BME280;68477;42.698;23.342;2024-03-29T00:28:06;95170.03;;;12.24;52.18
79077;BME280;68477;42.698;23.342;2024-03-29T00:30:32;95172.72;;;12.31;51.36
79077;BME280;68477;42.698;23.342;2024-03-29T00:32:58;95180.56;;;12.09;52.33
79077;BME280;68477;42.698;23.342;2024-03-29T00:35:25;95181.78;;;12.58;50.65
79077;BME280;68477;42.698;23.342;2024-03-29T00:37:51;95179.06;;;12.51;50.68
79077;BME280;68477;42.698;23.342;2024-03-29T00:40:16;95183.91;;;12.47;50.17
79077;BME280;68477;42.698;23.342;2024-03-29T00:42:42;95187.56;;;12.17;51.78
79077;BME280;68477;42.698;23.342;2024-03-29T00:45:08;95188.22;;;12.55;50.26
79077;BME280;68477;42.698;23.342;2024-03-29T00:47:34;95189.03;;;12.56;50.12
79077;BME280;68477;42.698;23.342;2024-03-29T00:49:59;95186.06;;;12.44;50.87
79077;BME280;68477;42.698;23.342;2024-03-29T00:52:25;95185.47;;;12.27;50.46
79077;BME280;68477;42.698;23.342;2024-03-29T00:54:50;95177.00;;;12.32;50.31
79077;BME280;68477;42.698;23.342;2024-03-29T00:57:16;95178.63;;;12.47;50.38
79077;BME280;68477;42.698;23.342;2024-03-29T00:59:42;95186.84;;;12.08;52.19
79077;BME280;68477;42.698;23.342;2024-03-29T01:02:09;95187.69;;;11.94;53.24
79077;BME280;68477;42.698;23.342;2024-03-29T01:04:35;95180.22;;;12.12;52.31
79077;BME280;68477;42.698;23.342;2024-03-29T01:07:01;95189.28;;;12.10;52.70
79077;BME280;68477;42.698;23.342;2024-03-29T01:09:26;95184.47;;;11.69;52.91
79077;BME280;68477;42.698;23.342;2024-03-29T01:11:52;95192.06;;;11.64;54.33
79077;BME280;68477;42.698;23.342;2024-03-29T01:14:19;95191.22;;;12.01;52.29
79077;BME280;68477;42.698;23.342;2024-03-29T01:16:44;95188.31;;;11.96;52.42
79077;BME280;68477;42.698;23.342;2024-03-29T01:19:10;95193.41;;;11.83;52.52
79077;BME280;68477;42.698;23.342;2024-03-29T01:21:36;95197.94;;;12.04;52.38
79077;BME280;68477;42.698;23.342;2024-03-29T01:24:02;95194.13;;;12.06;51.48
79077;BME280;68477;42.698;23.342;2024-03-29T01:26:28;95198.47;;;11.84;52.73
79077;BME280;68477;42.698;23.342;2024-03-29T01:28:53;95206.13;;;11.94;52.26
79077;BME280;68477;42.698;23.342;2024-03-29T01:31:19;95198.41;;;11.55;53.25
79077;BME280;68477;42.698;23.342;2024-03-29T01:33:44;95196.31;;;11.50;53.65
79077;BME280;68477;42.698;23.342;2024-03-29T01:36:10;95203.88;;;11.53;53.51
79077;BME280;68477;42.698;23.342;2024-03-29T01:38:38;95211.31;;;11.50;54.13
79077;BME280;68477;42.698;23.342;2024-03-29T01:41:04;95214.13;;;11.48;55.26
79077;BME280;68477;42.698;23.342;2024-03-29T01:43:29;95221.19;;;11.33;54.72
79077;BME280;68477;42.698;23.342;2024-03-29T01:45:55;95211.94;;;11.14;56.10
79077;BME280;68477;42.698;23.342;2024-03-29T01:48:22;95225.78;;;11.31;54.82
79077;BME280;68477;42.698;23.342;2024-03-29T01:50:49;95228.53;;;11.75;53.23
79077;BME280;68477;42.698;23.342;2024-03-29T01:53:16;95238.59;;;11.72;53.86
79077;BME280;68477;42.698;23.342;2024-03-29T01:55:43;95246.41;;;11.65;54.75
79077;BME280;68477;42.698;23.342;2024-03-29T01:58:09;95251.38;;;11.45;55.03
79077;BME280;68477;42.698;23.342;2024-03-29T02:00:36;95251.66;;;11.27;55.28
79077;BME280;68477;42.698;23.342;2024-03-29T02:03:05;95255.84;;;11.59;54.42
79077;BME280;68477;42.698;23.342;2024-03-29T02:05:35;95254.44;;;11.49;54.61
79077;BME280;68477;42.698;23.342;2024-03-29T02:08:03;95266.69;;;11.42;54.34
79077;BME280;68477;42.698;23.342;2024-03-29T02:10:29;95277.28;;;11.56;54.40
79077;BME280;68477;42.698;23.342;2024-03-29T02:12:55;95284.53;;;11.54;54.76
79077;BME280;68477;42.698;23.342;2024-03-29T02:15:20;95278.19;;;11.63;53.98
79077;BME280;68477;42.698;23.342;2024-03-29T02:17:46;95295.44;;;11.66;55.38
79077;BME280;68477;42.698;23.342;2024-03-29T02:20:11;95301.44;;;11.60;53.45
79077;BME280;68477;42.698;23.342;2024-03-29T02:22:41;95304.47;;;11.72;53.74
79077;BME280;68477;42.698;23.342;2024-03-29T02:25:12;95311.34;;;11.81;53.91
79077;BME280;68477;42.698;23.342;2024-03-29T02:27:38;95325.09;;;11.68;54.80
79077;BME280;68477;42.698;23.342;2024-03-29T02:30:05;95333.25;;;11.81;54.32
79077;BME280;68477;42.698;23.342;2024-03-29T02:32:31;95330.47;;;11.75;54.65
79077;BME280;68477;42.698;23.342;2024-03-29T02:34:57;95336.88;;;11.80;53.33
79077;BME280;68477;42.698;23.342;2024-03-29T02:37:22;95341.19;;;11.73;53.19
79077;BME280;68477;42.698;23.342;2024-03-29T02:39:47;95343.25;;;11.86;54.24
79077;BME280;68477;42.698;23.342;2024-03-29T02:42:13;95339.66;;;11.79;53.18
79077;BME280;68477;42.698;23.342;2024-03-29T02:44:38;95334.53;;;11.85;53.46
79077;BME280;68477;42.698;23.342;2024-03-29T02:47:04;95338.50;;;11.58;54.18
79077;BME280;68477;42.698;23.342;2024-03-29T02:49:29;95337.59;;;11.43;55.26
79077;BME280;68477;42.698;23.342;2024-03-29T02:51:56;95339.84;;;11.54;54.68
79077;BME280;68477;42.698;23.342;2024-03-29T02:54:22;95347.81;;;11.69;53.69
79077;BME280;68477;42.698;23.342;2024-03-29T02:56:48;95334.47;;;11.71;54.08
79077;BME280;68477;42.698;23.342;2024-03-29T02:59:13;95342.00;;;11.74;54.39
79077;BME280;68477;42.698;23.342;2024-03-29T03:01:40;95352.31;;;11.60;55.87
79077;BME280;68477;42.698;23.342;2024-03-29T03:04:05;95348.22;;;11.58;56.03
79077;BME280;68477;42.698;23.342;2024-03-29T03:06:31;95346.44;;;11.73;54.30
79077;BME280;68477;42.698;23.342;2024-03-29T03:08:57;95357.84;;;11.65;54.85
79077;BME280;68477;42.698;23.342;2024-03-29T03:11:42;95365.72;;;11.74;55.22
79077;BME280;68477;42.698;23.342;2024-03-29T03:14:08;95358.53;;;11.68;55.41
79077;BME280;68477;42.698;23.342;2024-03-29T03:16:33;95368.75;;;11.62;56.04
79077;BME280;68477;42.698;23.342;2024-03-29T03:18:59;95368.88;;;11.69;55.63
79077;BME280;68477;42.698;23.342;2024-03-29T03:21:25;95375.19;;;11.60;55.52
79077;BME280;68477;42.698;23.342;2024-03-29T03:23:50;95377.25;;;11.50;55.82
79077;BME280;68477;42.698;23.342;2024-03-29T03:26:16;95376.97;;;11.45;56.55
79077;BME280;68477;42.698;23.342;2024-03-29T03:28:41;95380.25;;;11.70;54.46
79077;BME280;68477;42.698;23.342;2024-03-29T03:31:07;95381.16;;;11.54;54.92
79077;BME280;68477;42.698;23.342;2024-03-29T03:33:33;95395.03;;;11.48;55.51
79077;BME280;68477;42.698;23.342;2024-03-29T03:35:59;95391.38;;;11.57;54.87
79077;BME280;68477;42.698;23.342;2024-03-29T03:38:25;95399.28;;;11.26;56.77
79077;BME280;68477;42.698;23.342;2024-03-29T03:40:50;95398.13;;;11.20;57.30
79077;BME280;68477;42.698;23.342;2024-03-29T03:43:16;95404.22;;;10.90;60.14
79077;BME280;68477;42.698;23.342;2024-03-29T03:45:41;95420.72;;;10.67;59.03
79077;BME280;68477;42.698;23.342;2024-03-29T03:48:08;95422.72;;;10.65;59.94
79077;BME280;68477;42.698;23.342;2024-03-29T03:50:35;95425.84;;;10.53;59.76
79077;BME280;68477;42.698;23.342;2024-03-29T03:53:01;95432.41;;;10.65;59.53
79077;BME280;68477;42.698;23.342;2024-03-29T03:55:26;95432.16;;;10.91;58.41
79077;BME280;68477;42.698;23.342;2024-03-29T03:57:55;95424.75;;;10.86;58.96
79077;BME280;68477;42.698;23.342;2024-03-29T04:00:22;95425.94;;;10.75;61.13
79077;BME280;68477;42.698;23.342;2024-03-29T04:02:51;95428.94;;;10.72;60.27
79077;BME280;68477;42.698;23.342;2024-03-29T04:05:18;95432.47;;;10.32;61.37
79077;BME280;68477;42.698;23.342;2024-03-29T04:07:44;95435.91;;;10.25;61.65
79077;BME280;68477;42.698;23.342;2024-03-29T04:10:10;95432.78;;;10.21;61.55
79077;BME280;68477;42.698;23.342;2024-03-29T04:12:36;95450.03;;;10.24;61.68
79077;BME280;68477;42.698;23.342;2024-03-29T04:15:01;95446.91;;;10.28;61.77
79077;BME280;68477;42.698;23.342;2024-03-29T04:17:28;95450.50;;;10.03;64.00
79077;BME280;68477;42.698;23.342;2024-03-29T04:19:56;95463.31;;;10.06;64.79
79077;BME280;68477;42.698;23.342;2024-03-29T04:22:22;95465.78;;;9.99;64.08
79077;BME280;68477;42.698;23.342;2024-03-29T04:24:49;95474.47;;;10.16;64.17
79077;BME280;68477;42.698;23.342;2024-03-29T04:27:14;95474.16;;;10.03;63.85
79077;BME280;68477;42.698;23.342;2024-03-29T04:29:40;95489.53;;;9.73;65.33
79077;BME280;68477;42.698;23.342;2024-03-29T04:32:06;95493.97;;;9.65;65.19
79077;BME280;68477;42.698;23.342;2024-03-29T04:34:31;95497.94;;;9.93;64.36
79077;BME280;68477;42.698;23.342;2024-03-29T04:36:57;95498.66;;;10.28;63.10
79077;BME280;68477;42.698;23.342;2024-03-29T04:39:22;95490.25;;;10.16;63.69
79077;BME280;68477;42.698;23.342;2024-03-29T04:41:48;95492.41;;;10.12;62.72
79077;BME280;68477;42.698;23.342;2024-03-29T04:44:23;95506.84;;;10.08;63.94
79077;BME280;68477;42.698;23.342;2024-03-29T04:46:49;95513.38;;;9.80;65.71
79077;BME280;68477;42.698;23.342;2024-03-29T04:49:15;95518.44;;;9.81;66.90
79077;BME280;68477;42.698;23.342;2024-03-29T04:51:43;95513.22;;;9.39;70.53
79077;BME280;68477;42.698;23.342;2024-03-29T04:54:08;95516.34;;;9.93;67.83
79077;BME280;68477;42.698;23.342;2024-03-29T04:56:34;95527.50;;;9.95;66.75
79077;BME280;68477;42.698;23.342;2024-03-29T04:59:01;95523.47;;;10.25;65.43
79077;BME280;68477;42.698;23.342;2024-03-29T05:01:27;95523.66;;;10.24;65.20
79077;BME280;68477;42.698;23.342;2024-03-29T05:03:53;95531.84;;;10.53;63.68
79077;BME280;68477;42.698;23.342;2024-03-29T05:06:19;95533.84;;;10.67;62.95
79077;BME280;68477;42.698;23.342;2024-03-29T05:08:44;95541.88;;;10.74;63.47
79077;BME280;68477;42.698;23.342;2024-03-29T05:11:11;95532.16;;;10.91;62.55
79077;BME280;68477;42.698;23.342;2024-03-29T05:13:39;95543.28;;;11.09;62.26
79077;BME280;68477;42.698;23.342;2024-03-29T05:16:05;95546.78;;;10.93;63.07
79077;BME280;68477;42.698;23.342;2024-03-29T05:18:31;95550.09;;;11.43;60.88
79077;BME280;68477;42.698;23.342;2024-03-29T05:20:56;95552.97;;;11.80;58.83
79077;BME280;68477;42.698;23.342;2024-03-29T05:23:22;95561.16;;;11.77;59.41
79077;BME280;68477;42.698;23.342;2024-03-29T05:25:47;95563.69;;;12.33;57.77
79077;BME280;68477;42.698;23.342;2024-03-29T05:28:14;95561.41;;;12.30;57.27
79077;BME280;68477;42.698;23.342;2024-03-29T05:30:40;95557.19;;;12.66;55.58
79077;BME280;68477;42.698;23.342;2024-03-29T05:33:05;95560.47;;;12.22;54.77
79077;BME280;68477;42.698;23.342;2024-03-29T05:35:32;95570.28;;;12.97;54.32
79077;BME280;68477;42.698;23.342;2024-03-29T05:37:58;95559.63;;;13.28;52.63
79077;BME280;68477;42.698;23.342;2024-03-29T05:40:23;95559.50;;;13.66;51.60
79077;BME280;68477;42.698;23.342;2024-03-29T05:42:53;95564.44;;;13.69;50.88
79077;BME280;68477;42.698;23.342;2024-03-29T05:45:29;95563.44;;;13.55;52.30
79077;BME280;68477;42.698;23.342;2024-03-29T05:47:55;95553.56;;;13.05;54.30
79077;BME280;68477;42.698;23.342;2024-03-29T05:50:22;95564.47;;;14.41;50.87
79077;BME280;68477;42.698;23.342;2024-03-29T05:52:48;95561.69;;;14.28;49.04
79077;BME280;68477;42.698;23.342;2024-03-29T05:55:14;95559.88;;;13.63;52.66
79077;BME280;68477;42.698;23.342;2024-03-29T05:57:39;95568.28;;;14.53;49.38
79077;BME280;68477;42.698;23.342;2024-03-29T06:00:07;95565.25;;;14.78;46.80
79077;BME280;68477;42.698;23.342;2024-03-29T06:02:36;95564.81;;;15.58;46.58
79077;BME280;68477;42.698;23.342;2024-03-29T06:05:02;95570.72;;;15.88;45.65
79077;BME280;68477;42.698;23.342;2024-03-29T06:07:28;95570.63;;;15.40;47.60
79077;BME280;68477;42.698;23.342;2024-03-29T06:09:54;95575.59;;;15.22;47.26
79077;BME280;68477;42.698;23.342;2024-03-29T06:12:20;95577.63;;;15.83;47.05
79077;BME280;68477;42.698;23.342;2024-03-29T06:14:45;95577.31;;;16.06;44.46
79077;BME280;68477;42.698;23.342;2024-03-29T06:17:29;95581.09;;;16.31;44.18
79077;BME280;68477;42.698;23.342;2024-03-29T06:19:55;95578.19;;;16.19;44.93
79077;BME280;68477;42.698;23.342;2024-03-29T06:22:22;95577.16;;;16.14;45.10
79077;BME280;68477;42.698;23.342;2024-03-29T06:24:53;95573.34;;;16.36;45.05
79077;BME280;68477;42.698;23.342;2024-03-29T06:27:19;95588.53;;;16.08;47.37
79077;BME280;68477;42.698;23.342;2024-03-29T06:29:48;95577.56;;;16.11;45.40
79077;BME280;68477;42.698;23.342;2024-03-29T06:32:13;95588.72;;;15.99;45.27
79077;BME280;68477;42.698;23.342;2024-03-29T06:34:39;95575.00;;;16.44;43.20
79077;BME280;68477;42.698;23.342;2024-03-29T06:37:04;95586.75;;;16.82;44.54
79077;BME280;68477;42.698;23.342;2024-03-29T06:39:32;95584.72;;;17.31;41.92
79077;BME280;68477;42.698;23.342;2024-03-29T06:41:57;95576.94;;;17.09;41.39
79077;BME280;68477;42.698;23.342;2024-03-29T06:44:23;95586.50;;;17.83;40.27
79077;BME280;68477;42.698;23.342;2024-03-29T06:46:49;95584.00;;;17.88;41.85
79077;BME280;68477;42.698;23.342;2024-03-29T06:49:14;95588.75;;;17.86;39.05
79077;BME280;68477;42.698;23.342;2024-03-29T06:51:40;95595.59;;;18.20;39.57
79077;BME280;68477;42.698;23.342;2024-03-29T06:54:07;95596.91;;;18.49;39.67
79077;BME280;68477;42.698;23.342;2024-03-29T06:56:32;95585.25;;;17.92;41.46
79077;BME280;68477;42.698;23.342;2024-03-29T06:58:58;95586.41;;;18.16;40.15
79077;BME280;68477;42.698;23.342;2024-03-29T07:01:24;95594.91;;;18.38;39.46
79077;BME280;68477;42.698;23.342;2024-03-29T07:03:50;95592.69;;;18.28;40.20
79077;BME280;68477;42.698;23.342;2024-03-29T07:06:17;95597.44;;;18.20;39.63
79077;BME280;68477;42.698;23.342;2024-03-29T07:08:44;95592.72;;;18.22;38.33
79077;BME280;68477;42.698;23.342;2024-03-29T07:11:09;95603.78;;;18.63;39.77
79077;BME280;68477;42.698;23.342;2024-03-29T07:13:36;95606.94;;;19.42;38.17
79077;BME280;68477;42.698;23.342;2024-03-29T07:16:02;95613.22;;;19.54;37.89
79077;BME280;68477;42.698;23.342;2024-03-29T07:18:28;95612.25;;;19.48;38.00
79077;BME280;68477;42.698;23.342;2024-03-29T07:20:54;95604.78;;;19.82;36.73
79077;BME280;68477;42.698;23.342;2024-03-29T07:23:20;95610.59;;;19.47;36.21
79077;BME280;68477;42.698;23.342;2024-03-29T07:26:03;95602.38;;;19.74;38.32
79077;BME280;68477;42.698;23.342;2024-03-29T07:28:29;95600.91;;;19.53;38.16
79077;BME280;68477;42.698;23.342;2024-03-29T07:30:54;95603.72;;;19.83;37.67
79077;BME280;68477;42.698;23.342;2024-03-29T07:33:21;95604.38;;;19.78;36.01
79077;BME280;68477;42.698;23.342;2024-03-29T07:35:51;95611.09;;;19.38;36.09
79077;BME280;68477;42.698;23.342;2024-03-29T07:38:16;95608.41;;;20.06;35.53
79077;BME280;68477;42.698;23.342;2024-03-29T07:40:43;95606.53;;;20.25;36.21
79077;BME280;68477;42.698;23.342;2024-03-29T07:43:09;95595.19;;;19.74;36.12
79077;BME280;68477;42.698;23.342;2024-03-29T07:45:34;95601.88;;;20.57;35.14
79077;BME280;68477;42.698;23.342;2024-03-29T07:48:00;95592.94;;;20.63;34.08
79077;BME280;68477;42.698;23.342;2024-03-29T07:50:26;95595.28;;;20.71;33.38
79077;BME280;68477;42.698;23.342;2024-03-29T07:52:51;95596.34;;;21.12;34.78
79077;BME280;68477;42.698;23.342;2024-03-29T07:55:17;95597.03;;;20.47;34.22
79077;BME280;68477;42.698;23.342;2024-03-29T07:57:43;95595.34;;;20.94;33.17
79077;BME280;68477;42.698;23.342;2024-03-29T08:00:08;95604.13;;;21.13;33.41
79077;BME280;68477;42.698;23.342;2024-03-29T08:02:35;95605.03;;;20.96;32.89
79077;BME280;68477;42.698;23.342;2024-03-29T08:05:01;95606.03;;;21.25;32.88
79077;BME280;68477;42.698;23.342;2024-03-29T08:07:26;95596.13;;;20.83;33.53
79077;BME280;68477;42.698;23.342;2024-03-29T08:09:52;95599.44;;;21.62;32.64
79077;BME280;68477;42.698;23.342;2024-03-29T08:12:17;95600.16;;;21.04;33.22
79077;BME280;68477;42.698;23.342;2024-03-29T08:14:43;95593.66;;;21.65;31.94
79077;BME280;68477;42.698;23.342;2024-03-29T08:17:09;95587.81;;;21.68;31.66
79077;BME280;68477;42.698;23.342;2024-03-29T08:19:41;95588.09;;;21.13;31.84
79077;BME280;68477;42.698;23.342;2024-03-29T08:22:09;95578.16;;;21.44;32.87
79077;BME280;68477;42.698;23.342;2024-03-29T08:24:36;95575.16;;;21.52;33.62
79077;BME280;68477;42.698;23.342;2024-03-29T08:27:02;95566.97;;;21.82;33.49
79077;BME280;68477;42.698;23.342;2024-03-29T08:29:28;95574.09;;;22.40;30.94
79077;BME280;68477;42.698;23.342;2024-03-29T08:31:54;95577.44;;;22.76;31.70
79077;BME280;68477;42.698;23.342;2024-03-29T08:34:19;95569.06;;;22.84;32.17
79077;BME280;68477;42.698;23.342;2024-03-29T08:36:45;95567.06;;;22.79;33.18
79077;BME280;68477;42.698;23.342;2024-03-29T08:39:10;95559.84;;;22.80;32.33
79077;BME280;68477;42.698;23.342;2024-03-29T08:41:37;95568.78;;;23.14;30.36
79077;BME280;68477;42.698;23.342;2024-03-29T08:44:02;95567.41;;;22.83;29.49
79077;BME280;68477;42.698;23.342;2024-03-29T08:46:28;95557.88;;;23.20;30.53
79077;BME280;68477;42.698;23.342;2024-03-29T08:48:54;95561.53;;;23.31;30.63
79077;BME280;68477;42.698;23.342;2024-03-29T08:51:20;95556.75;;;23.00;29.45
79077;BME280;68477;42.698;23.342;2024-03-29T08:53:46;95563.00;;;22.48;30.55
79077;BME280;68477;42.698;23.342;2024-03-29T08:56:12;95559.19;;;22.44;29.95
79077;BME280;68477;42.698;23.342;2024-03-29T08:58:38;95556.00;;;23.04;29.03
79077;BME280;68477;42.698;23.342;2024-03-29T09:01:04;95548.69;;;23.00;29.54
79077;BME280;68477;42.698;23.342;2024-03-29T09:03:30;95540.31;;;23.30;29.77
79077;BME280;68477;42.698;23.342;2024-03-29T09:05:56;95533.97;;;23.02;31.57
79077;BME280;68477;42.698;23.342;2024-03-29T09:08:21;95537.94;;;23.67;29.14
79077;BME280;68477;42.698;23.342;2024-03-29T09:10:47;95541.63;;;24.43;27.41
79077;BME280;68477;42.698;23.342;2024-03-29T09:13:12;95528.25;;;23.32;27.62
79077;BME280;68477;42.698;23.342;2024-03-29T09:15:38;95518.81;;;23.46;29.44
79077;BME280;68477;42.698;23.342;2024-03-29T09:18:03;95526.59;;;24.69;30.38
79077;BME280;68477;42.698;23.342;2024-03-29T09:20:59;95512.00;;;24.65;27.35
79077;BME280;68477;42.698;23.342;2024-03-29T09:23:26;95518.75;;;24.41;27.99
79077;BME280;68477;42.698;23.342;2024-03-29T09:25:53;95513.22;;;24.08;26.51
79077;BME280;68477;42.698;23.342;2024-03-29T09:28:19;95510.81;;;24.56;26.73
79077;BME280;68477;42.698;23.342;2024-03-29T09:30:47;95501.25;;;24.65;27.78
79077;BME280;68477;42.698;23.342;2024-03-29T09:33:12;95490.78;;;24.42;25.53
79077;BME280;68477;42.698;23.342;2024-03-29T09:35:38;95478.38;;;24.14;27.46
79077;BME280;68477;42.698;23.342;2024-03-29T09:38:04;95478.00;;;24.81;27.71
79077;BME280;68477;42.698;23.342;2024-03-29T09:40:30;95479.91;;;24.85;25.23
79077;BME280;68477;42.698;23.342;2024-03-29T09:42:56;95483.72;;;25.21;25.59
79077;BME280;68477;42.698;23.342;2024-03-29T09:45:30;95482.72;;;25.33;25.74
79077;BME280;68477;42.698;23.342;2024-03-29T09:47:59;95478.84;;;24.32;26.27
79077;BME280;68477;42.698;23.342;2024-03-29T09:50:25;95475.44;;;23.93;26.38
79077;BME280;68477;42.698;23.342;2024-03-29T09:52:51;95473.00;;;24.35;25.98
79077;BME280;68477;42.698;23.342;2024-03-29T09:55:18;95468.00;;;24.49;25.92
79077;BME280;68477;42.698;23.342;2024-03-29T09:57:45;95468.00;;;25.03;24.14
79077;BME280;68477;42.698;23.342;2024-03-29T10:00:11;95464.22;;;25.46;25.33
79077;BME280;68477;42.698;23.342;2024-03-29T10:02:38;95467.84;;;25.62;23.34
79077;BME280;68477;42.698;23.342;2024-03-29T10:05:06;95464.53;;;25.13;25.05
79077;BME280;68477;42.698;23.342;2024-03-29T10:07:35;95463.97;;;25.06;26.35
79077;BME280;68477;42.698;23.342;2024-03-29T10:10:03;95469.84;;;26.55;23.62
79077;BME280;68477;42.698;23.342;2024-03-29T10:12:29;95472.00;;;26.58;23.78
79077;BME280;68477;42.698;23.342;2024-03-29T10:14:56;95470.22;;;25.59;25.00
79077;BME280;68477;42.698;23.342;2024-03-29T10:17:30;95461.22;;;23.98;24.79
79077;BME280;68477;42.698;23.342;2024-03-29T10:20:00;95453.03;;;24.58;23.79
79077;BME280;68477;42.698;23.342;2024-03-29T10:22:26;95447.22;;;24.18;25.35
79077;BME280;68477;42.698;23.342;2024-03-29T10:24:52;95452.78;;;24.60;25.03
79077;BME280;68477;42.698;23.342;2024-03-29T10:27:18;95455.00;;;24.68;26.43
79077;BME280;68477;42.698;23.342;2024-03-29T10:29:43;95457.53;;;24.48;26.62
79077;BME280;68477;42.698;23.342;2024-03-29T10:32:09;95456.75;;;24.84;24.77
79077;BME280;68477;42.698;23.342;2024-03-29T10:34:34;95455.31;;;25.83;25.77
79077;BME280;68477;42.698;23.342;2024-03-29T10:37:05;95445.56;;;25.82;24.79
79077;BME280;68477;42.698;23.342;2024-03-29T10:39:32;95447.84;;;26.05;24.01
79077;BME280;68477;42.698;23.342;2024-03-29T10:41:59;95448.22;;;26.45;25.64
79077;BME280;68477;42.698;23.342;2024-03-29T10:44:26;95438.84;;;26.98;24.90
79077;BME280;68477;42.698;23.342;2024-03-29T10:46:53;95441.19;;;26.38;25.19
79077;BME280;68477;42.698;23.342;2024-03-29T10:49:19;95439.56;;;27.60;23.85
79077;BME280;68477;42.698;23.342;2024-03-29T10:51:45;95438.28;;;26.55;24.44
79077;BME280;68477;42.698;23.342;2024-03-29T10:54:11;95441.78;;;27.27;25.18
79077;BME280;68477;42.698;23.342;2024-03-29T10:56:38;95433.41;;;26.93;24.30
79077;BME280;68477;42.698;23.342;2024-03-29T10:59:21;95433.16;;;26.99;23.12
79077;BME280;68477;42.698;23.342;2024-03-29T11:01:52;95431.81;;;26.97;23.55
79077;BME280;68477;42.698;23.342;2024-03-29T11:04:22;95426.59;;;27.51;23.66
79077;BME280;68477;42.698;23.342;2024-03-29T11:06:51;95436.59;;;26.29;24.45
79077;BME280;68477;42.698;23.342;2024-03-29T11:09:20;95430.16;;;26.60;23.89
79077;BME280;68477;42.698;23.342;2024-03-29T11:11:50;95421.00;;;26.61;23.40
79077;BME280;68477;42.698;23.342;2024-03-29T11:14:20;95422.63;;;26.67;23.32
79077;BME280;68477;42.698;23.342;2024-03-29T11:16:49;95422.78;;;26.05;25.76
79077;BME280;68477;42.698;23.342;2024-03-29T11:19:18;95419.13;;;26.52;24.06
79077;BME280;68477;42.698;23.342;2024-03-29T11:21:44;95424.97;;;27.71;22.99
79077;BME280;68477;42.698;23.342;2024-03-29T11:24:13;95415.56;;;29.01;22.63
79077;BME280;68477;42.698;23.342;2024-03-29T11:26:41;95418.41;;;28.81;22.53
79077;BME280;68477;42.698;23.342;2024-03-29T11:29:18;95408.22;;;28.28;23.06
79077;BME280;68477;42.698;23.342;2024-03-29T11:31:44;95415.97;;;29.47;21.65
79077;BME280;68477;42.698;23.342;2024-03-29T11:34:10;95411.41;;;29.14;21.29
79077;BME280;68477;42.698;23.342;2024-03-29T11:36:39;95410.06;;;29.11;21.84
79077;BME280;68477;42.698;23.342;2024-03-29T11:39:05;95412.69;;;27.99;21.90
79077;BME280;68477;42.698;23.342;2024-03-29T11:41:30;95414.22;;;27.35;23.36
79077;BME280;68477;42.698;23.342;2024-03-29T11:43:57;95414.22;;;28.15;24.39
79077;BME280;68477;42.698;23.342;2024-03-29T11:46:24;95417.09;;;28.78;22.78
79077;BME280;68477;42.698;23.342;2024-03-29T11:48:50;95408.50;;;28.32;23.90
79077;BME280;68477;42.698;23.342;2024-03-29T11:51:21;95412.75;;;27.83;22.31
79077;BME280;68477;42.698;23.342;2024-03-29T11:53:50;95391.34;;;28.41;25.46
79077;BME280;68477;42.698;23.342;2024-03-29T11:56:19;95396.00;;;29.62;22.64
79077;BME280;68477;42.698;23.342;2024-03-29T11:58:45;95384.22;;;29.72;22.84
79077;BME280;68477;42.698;23.342;2024-03-29T12:01:13;95392.03;;;29.25;23.12
79077;BME280;68477;42.698;23.342;2024-03-29T12:03:40;95389.84;;;29.27;21.49
79077;BME280;68477;42.698;23.342;2024-03-29T12:06:06;95388.03;;;29.18;22.63
79077;BME280;68477;42.698;23.342;2024-03-29T12:08:38;95382.28;;;30.39;21.29
79077;BME280;68477;42.698;23.342;2024-03-29T12:11:04;95379.13;;;29.41;22.19
79077;BME280;68477;42.698;23.342;2024-03-29T12:13:30;95386.03;;;29.58;21.92
79077;BME280;68477;42.698;23.342;2024-03-29T12:15:56;95383.06;;;30.21;20.93
79077;BME280;68477;42.698;23.342;2024-03-29T12:18:22;95377.66;;;28.67;21.67
79077;BME280;68477;42.698;23.342;2024-03-29T12:20:49;95386.75;;;28.42;22.83
79077;BME280;68477;42.698;23.342;2024-03-29T12:23:17;95385.34;;;28.84;22.58
79077;BME280;68477;42.698;23.342;2024-03-29T12:25:43;95387.66;;;29.29;22.31
79077;BME280;68477;42.698;23.342;2024-03-29T12:28:10;95384.91;;;27.88;24.31
79077;BME280;68477;42.698;23.342;2024-03-29T12:30:37;95377.22;;;28.50;24.54
79077;BME280;68477;42.698;23.342;2024-03-29T12:33:07;95378.31;;;30.31;22.10
79077;BME280;68477;42.698;23.342;2024-03-29T12:35:34;95377.13;;;29.76;22.36
79077;BME280;68477;42.698;23.342;2024-03-29T12:38:01;95376.91;;;29.19;22.54
79077;BME280;68477;42.698;23.342;2024-03-29T12:40:28;95382.41;;;30.10;20.44
79077;BME280;68477;42.698;23.342;2024-03-29T12:42:58;95370.38;;;28.96;20.91
79077;BME280;68477;42.698;23.342;2024-03-29T12:45:24;95370.50;;;29.10;21.37
79077;BME280;68477;42.698;23.342;2024-03-29T12:47:51;95373.00;;;29.60;21.24